Airfield :
LOGIN :

Register | Disclaimer

   EN    FR    IT 

 










Legend :    VFR   Marginal VFR   IFR   Intensive IFR   Very Intensive IFR
Visi :
Ceiling :
>= 8 km
>= 3000ft
5 to 8 km
1000 to 3000 ft
1500m to 5 km
500 to 1000 ft
800 to 1500m
200 to 500 ft
< 800m
< 200 ft
Symbols :   Thunderstorms  Fog  Heavy snow  Heavy precipitations  Wind > 20 kt
SIGMETs :     Misc.  Thunderstorms  Icing  Turbulence  Mountain Waves  Volcanic Ashes







- Airport Elevation : 352 ft
- IATA code : ARW


LRAR - Arad International

CURRENT METAR :
  • 181600Z 12005KT CAVOK 27/10 Q1020

EXPIRED METARs :
  • 181530Z 15005KT 120V180 CAVOK 27/10 Q1020
  • 181500Z 15007KT 120V180 CAVOK 27/09 Q1020
  • 181430Z 11007KT 060V150 CAVOK 27/09 Q1020
  • 181400Z 22005KT 170V290 CAVOK 28/08 Q1020
  • 181330Z AUTO VRB03KT 9999 NCD 28/09 Q1020

TAF TAF LRAR
Valid from the 18 at 15:00 until the 19 at 00:00 UTC


181400Z 1815/1824 11006KT CAVOK
No reported NOTAMs for that airfield.



MET'MAP, your aeronautical weather chart ! - Copyright ORBIFLY December 2007 - Disclaimer

ORBIFLY MET'MAP TEAM :

Programming & Development : Alexandra Zaïnal
Concept & Development : Baudouin d'Aumeries
Co-Development & Prog : Marc-Olivier Méhu
Technical & hardware support : Manuel Goepfert

Contact : metmap@orbifly.com




SOURCES & CREDITS :

   NOAA